Home   Weather   Blackwell   Past weeks
Flag for USA

Past Weather in Blackwell, Missouri, USA — Yesterday and Last 2 Weeks

Currently: 88 °F. Warm. (Weather station: Washington Regional Airport, USA). See more current weather

Past Weather in Blackwell — Graph

°F

Blackwell Temperature Yesterday

Maximum temperature yesterday: 91 °F (at 3:35 pm)
Minimum temperature yesterday: 72 °F (at 11:55 pm)
Average temperature yesterday: 83 °F

High & Low Weather Summary for the Past Weeks

 TemperatureHumidityPressure
High93 °F (Jun 16, 1:35 pm)100% (Jun 9, 9:15 pm)30.29 "Hg (Jun 9, 9:15 pm)
Low54 °F (Jun 11, 4:15 am)38% (Jun 15, 11:15 am)29.79 "Hg (Jun 23, 4:15 am)
Average79 °F75%30.00 "Hg
* Reported Jun 9 11:15 am — Jun 24 11:35 am, Blackwell. Weather by CustomWeather, © 2024

Note: Actual official high and low records may vary slightly from our data, if they occured in-between our weather recording intervals... More about our weather records

Blackwell Weather History for the Previous 24 Hours

Scroll right to see more
 ConditionsComfort  
Time TempWeatherWind HumidityBarometerVisibility
11:35 am
Mon, Jun 24
88 °FWarm.6 mph59%29.97 "Hg10 mi
9:55 am82 °FWarm.8 mph70%29.98 "Hg10 mi
9:35 am81 °FWarm.No wind74%29.99 "Hg10 mi
9:15 am79 °FWarm.5 mph79%29.99 "Hg10 mi
8:55 am79 °FWarm.No wind79%29.99 "Hg10 mi
8:15 am77 °FWarm.No wind83%29.99 "Hg10 mi
7:35 am73 °FMild.No wind100%29.99 "Hg10 mi
7:15 am72 °FMild.No wind100%29.97 "Hg10 mi
6:55 am70 °FMild.No wind100%29.97 "Hg10 mi
6:15 am66 °FMild.No wind100%29.96 "Hg10 mi
5:55 am66 °FMild.No wind100%29.96 "Hg10 mi
5:35 am66 °FMild.No wind100%29.95 "Hg10 mi
5:15 am66 °FMild.No wind100%29.95 "Hg10 mi
4:55 am66 °FMild.No wind100%29.94 "Hg10 mi
4:35 am68 °FMild.No wind100%29.94 "Hg10 mi
3:55 am68 °FMild.No wind100%29.93 "Hg10 mi
3:35 am68 °FMild.No wind100%29.92 "Hg10 mi
2:55 am68 °FMild.No wind100%29.92 "Hg10 mi
2:15 am68 °FMild.No wind100%29.92 "Hg10 mi
1:35 am70 °FMild.No wind100%29.92 "Hg10 mi
1:15 am70 °FMild.No wind100%29.92 "Hg10 mi
12:55 am70 °FMild.No wind100%29.92 "Hg10 mi
12:35 am72 °FMild.No wind100%29.92 "Hg10 mi
12:15 am72 °FMild.No wind100%29.92 "Hg10 mi
11:55 pm
Sun, Jun 23
72 °FMild.No wind94%29.92 "Hg10 mi
11:35 pm73 °FMild.No wind94%29.92 "Hg10 mi
11:15 pm73 °FMild.No wind94%29.92 "Hg10 mi
10:55 pm73 °FMild.No wind94%29.91 "Hg10 mi
10:35 pm75 °FMild.No wind94%29.91 "Hg10 mi
10:15 pm75 °FMild.No wind89%29.91 "Hg10 mi
9:35 pm75 °FMild.No wind94%29.89 "Hg10 mi
9:15 pm79 °FWarm.No wind74%29.89 "Hg10 mi
8:35 pm81 °FWarm.No wind74%29.88 "Hg10 mi
6:55 pm90 °FHot.No wind49%29.87 "Hg10 mi
6:35 pm90 °FHot.No wind49%29.87 "Hg10 mi
6:15 pm90 °FHot.9 mph46%29.87 "Hg10 mi
5:55 pm91 °FHot.9 mph44%29.86 "Hg10 mi
5:35 pm91 °FHot.9 mph44%29.87 "Hg10 mi
4:55 pm91 °FHot.7 mph44%29.88 "Hg10 mi
4:35 pm91 °FHot.8 mph46%29.87 "Hg10 mi
4:15 pm91 °FHot.6 mph44%29.87 "Hg10 mi
3:35 pm91 °FHot.9 mph44%29.88 "Hg10 mi
3:15 pm90 °FHot.10 mph49%29.88 "Hg10 mi
2:15 pm90 °FHot.9 mph49%29.88 "Hg10 mi
1:55 pm88 °FWarm.7 mph52%29.89 "Hg10 mi
1:35 pm88 °FWarm.7 mph52%29.89 "Hg10 mi
1:15 pm88 °FWarm.No wind55%29.89 "Hg10 mi
12:55 pm86 °FWarm.8 mph59%29.89 "Hg10 mi
12:35 pm86 °FWarm.7 mph62%29.90 "Hg10 mi
12:15 pm86 °FWarm.10 mph59%29.90 "Hg10 mi
Weather by CustomWeather, © 2024

See weather overview